Time;durP1;ratioP1;P1;durP2;ratioP2;P2;SDS_P1;SDS_P2;PMS_P1;PMS_P2;Temp;Humidity;BMP_temperature;BMP_pressure;BME280_temperature;BME280_humidity;BME280_pressure;Samples;Min_cycle;Max_cycle;Signal;HPM_P1;HPM_P2
2022/09/06 00:01:57;;;;;;;5.88;4.07;;;;;;;;;;5073696;28;20119;-84
2022/09/06 00:04:23;;;;;;;6.47;5.25;;;;;;;;;;5051928;28;20043;-84
2022/09/06 00:06:49;;;;;;;5.85;4.10;;;;;;;;;;5049168;28;20036;-84
2022/09/06 00:09:15;;;;;;;7.00;4.75;;;;;;;;;;5049872;28;20036;-84
2022/09/06 00:11:41;;;;;;;10.07;5.00;;;;;;;;;;5051729;28;20044;-84
2022/09/06 00:14:07;;;;;;;5.95;4.32;;;;;;;;;;5053225;28;20123;-85
2022/09/06 00:16:34;;;;;;;4.85;4.32;;;;;;;;;;5064567;28;20050;-84
2022/09/06 00:19:00;;;;;;;6.78;3.90;;;;;;;;;;5058473;28;20078;-84
2022/09/06 00:21:28;;;;;;;4.80;4.05;;;;;;;;;;5049985;28;20489;-84
2022/09/06 00:23:54;;;;;;;7.60;5.00;;;;;;;;;;5066712;28;20097;-85
2022/09/06 00:26:21;;;;;;;6.47;4.32;;;;;;;;;;5049677;28;20040;-84
2022/09/06 00:28:47;;;;;;;5.95;4.85;;;;;;;;;;5052816;28;20429;-85
2022/09/06 00:31:18;;;;;;;7.88;4.68;;;;;;;;;;5057431;28;20048;-84
2022/09/06 00:33:44;;;;;;;7.85;4.03;;;;;;;;;;5049499;28;20397;-85
2022/09/06 00:36:11;;;;;;;8.45;4.60;;;;;;;;;;5075024;28;20181;-84
2022/09/06 00:38:37;;;;;;;5.63;4.35;;;;;;;;;;5063830;28;20101;-84
2022/09/06 00:41:04;;;;;;;8.32;4.75;;;;;;;;;;5052358;28;20047;-84
2022/09/06 00:43:30;;;;;;;5.22;4.00;;;;;;;;;;5074444;28;20040;-84
2022/09/06 00:45:57;;;;;;;6.40;4.65;;;;;;;;;;5052281;28;20035;-84
2022/09/06 00:48:23;;;;;;;7.63;4.43;;;;;;;;;;5083655;28;20440;-84
2022/09/06 00:50:51;;;;;;;5.75;4.10;;;;;;;;;;5067403;28;20374;-84
2022/09/06 00:53:18;;;;;;;5.88;4.30;;;;;;;;;;5074525;28;20058;-84
2022/09/06 00:55:44;;;;;;;4.57;3.70;;;;;;;;;;5048738;28;20480;-84
2022/09/06 00:58:10;;;;;;;5.43;4.05;;;;;;;;;;5058270;28;20046;-84
2022/09/06 01:00:37;;;;;;;5.13;4.20;;;;;;;;;;5058887;28;20044;-84
2022/09/06 01:03:04;;;;;;;5.22;4.18;;;;;;;;;;5048159;28;20036;-84
2022/09/06 01:05:37;;;;;;;5.95;4.35;;;;;;;;;;5041035;28;20067;-84
2022/09/06 01:08:03;;;;;;;7.15;4.50;;;;;;;;;;5073835;28;20036;-84
2022/09/06 01:10:29;;;;;;;6.80;4.68;;;;;;;;;;5074653;28;20035;-84
2022/09/06 01:12:57;;;;;;;7.00;4.22;;;;;;;;;;5057044;28;20108;-84
2022/09/06 01:15:24;;;;;;;7.93;4.45;;;;;;;;;;5065435;28;20051;-85
2022/09/06 01:17:50;;;;;;;18.30;6.20;;;;;;;;;;5050895;28;20040;-84
2022/09/06 01:20:35;;;;;;;5.85;4.40;;;;;;;;;;5067052;28;20046;-84
2022/09/06 01:23:20;;;;;;;9.70;4.47;;;;;;;;;;5073498;28;20043;-85
2022/09/06 01:26:04;;;;;;;7.82;4.43;;;;;;;;;;5057278;28;20453;-84
2022/09/06 01:28:33;;;;;;;5.38;4.13;;;;;;;;;;5063843;28;20111;-84
2022/09/06 01:31:05;;;;;;;7.80;4.38;;;;;;;;;;5048465;28;20088;-84
2022/09/06 01:33:51;;;;;;;9.18;4.68;;;;;;;;;;5078763;28;20039;-85
2022/09/06 01:36:19;;;;;;;6.28;4.05;;;;;;;;;;5042170;28;20048;-85
2022/09/06 01:38:45;;;;;;;6.85;4.40;;;;;;;;;;5063057;28;20043;-84
2022/09/06 01:41:11;;;;;;;6.35;4.32;;;;;;;;;;5062822;28;20123;-83
2022/09/06 01:43:40;;;;;;;6.90;4.63;;;;;;;;;;5072503;28;20425;-84
2022/09/06 01:46:25;;;;;;;8.35;4.50;;;;;;;;;;5082047;28;20047;-83
2022/09/06 01:49:06;;;;;;;5.72;4.55;;;;;;;;;;5063409;28;20062;-84
2022/09/06 01:51:32;;;;;;;7.78;5.32;;;;;;;;;;5067342;28;20533;-84
2022/09/06 01:54:17;;;;;;;5.40;4.35;;;;;;;;;;5073122;28;20038;-83
2022/09/06 01:57:02;;;;;;;10.55;5.22;;;;;;;;;;5080719;28;20542;-83
2022/09/06 01:59:31;;;;;;;10.18;4.25;;;;;;;;;;5064183;28;20445;-83
2022/09/06 02:02:08;;;;;;;16.75;5.32;;;;;;;;;;5050343;28;20374;-83
2022/09/06 02:04:41;;;;;;;7.38;5.13;;;;;;;;;;5048316;28;20477;-83
2022/09/06 02:07:19;;;;;;;6.47;4.53;;;;;;;;;;5056671;28;20045;-83
2022/09/06 02:09:49;;;;;;;5.43;4.65;;;;;;;;;;5066241;28;20051;-83
2022/09/06 02:12:16;;;;;;;5.82;4.63;;;;;;;;;;5057010;28;20051;-83
2022/09/06 02:15:02;;;;;;;5.82;4.32;;;;;;;;;;5056965;28;20139;-84
2022/09/06 02:17:34;;;;;;;6.30;5.35;;;;;;;;;;5070493;28;20061;-83
2022/09/06 02:20:03;;;;;;;10.05;4.93;;;;;;;;;;5048132;28;20075;-83
2022/09/06 02:22:31;;;;;;;7.57;4.75;;;;;;;;;;5071808;28;20445;-83
2022/09/06 02:24:59;;;;;;;6.65;5.40;;;;;;;;;;5070995;28;20032;-83
2022/09/06 02:27:26;;;;;;;4.88;3.85;;;;;;;;;;5049423;28;20040;-84
2022/09/06 02:29:52;;;;;;;8.23;4.65;;;;;;;;;;5065415;28;20043;-83
2022/09/06 02:32:19;;;;;;;5.93;4.38;;;;;;;;;;5067711;28;20039;-83
2022/09/06 02:34:46;;;;;;;6.57;4.80;;;;;;;;;;5064283;28;20481;-83
2022/09/06 02:37:16;;;;;;;6.43;4.57;;;;;;;;;;5052312;28;20058;-83
2022/09/06 02:39:42;;;;;;;6.60;4.72;;;;;;;;;;5076342;28;20575;-83
2022/09/06 02:42:12;;;;;;;6.28;4.70;;;;;;;;;;5085465;28;20043;-84
2022/09/06 02:44:38;;;;;;;7.85;5.30;;;;;;;;;;5083938;28;20158;-84
2022/09/06 02:47:04;;;;;;;7.72;5.25;;;;;;;;;;5052879;28;20054;-83
2022/09/06 02:49:30;;;;;;;6.00;4.18;;;;;;;;;;5067765;28;20385;-83
2022/09/06 02:51:57;;;;;;;6.00;4.68;;;;;;;;;;5051167;28;20040;-84
2022/09/06 02:54:23;;;;;;;6.10;4.47;;;;;;;;;;5053343;28;20036;-84
2022/09/06 02:56:49;;;;;;;9.55;5.15;;;;;;;;;;5054160;28;20084;-83
2022/09/06 02:59:15;;;;;;;4.75;4.25;;;;;;;;;;5053601;28;20032;-84
2022/09/06 03:01:41;;;;;;;7.90;4.85;;;;;;;;;;5049572;28;20040;-83
2022/09/06 03:04:07;;;;;;;7.45;4.68;;;;;;;;;;5051949;28;20058;-84
2022/09/06 03:06:34;;;;;;;6.25;4.53;;;;;;;;;;5066121;28;20744;-83
2022/09/06 03:09:00;;;;;;;6.07;4.60;;;;;;;;;;5067377;28;20040;-83
2022/09/06 03:11:27;;;;;;;6.93;4.90;;;;;;;;;;5050246;28;20062;-83
2022/09/06 03:13:53;;;;;;;9.55;4.93;;;;;;;;;;5055747;28;20048;-83
2022/09/06 03:16:21;;;;;;;5.20;4.70;;;;;;;;;;5049081;28;20115;-83
2022/09/06 03:18:47;;;;;;;6.13;4.78;;;;;;;;;;5068274;28;20130;-83
2022/09/06 03:21:14;;;;;;;6.97;4.82;;;;;;;;;;5075290;28;20046;-83
2022/09/06 03:23:40;;;;;;;5.93;4.03;;;;;;;;;;5050259;28;20048;-83
2022/09/06 03:26:07;;;;;;;10.45;4.88;;;;;;;;;;5050826;28;20088;-83
2022/09/06 03:28:33;;;;;;;5.95;4.72;;;;;;;;;;5069212;28;20035;-83
2022/09/06 03:30:59;;;;;;;7.72;4.78;;;;;;;;;;5067095;28;20071;-84
2022/09/06 03:33:25;;;;;;;6.88;4.28;;;;;;;;;;5040388;28;20075;-83
2022/09/06 03:35:59;;;;;;;9.13;5.55;;;;;;;;;;5048477;28;20040;-83
2022/09/06 03:38:26;;;;;;;6.03;5.03;;;;;;;;;;5073447;28;20040;-85
2022/09/06 03:40:52;;;;;;;7.78;4.53;;;;;;;;;;5071401;28;20055;-84
2022/09/06 03:43:19;;;;;;;5.32;4.72;;;;;;;;;;5050614;28;20082;-84
2022/09/06 03:45:52;;;;;;;5.40;3.83;;;;;;;;;;5085217;28;20036;-84
2022/09/06 03:48:19;;;;;;;7.10;4.95;;;;;;;;;;5057572;28;20044;-84
2022/09/06 03:50:46;;;;;;;5.03;4.18;;;;;;;;;;5056372;28;20048;-84
2022/09/06 03:53:13;;;;;;;6.13;4.40;;;;;;;;;;5049104;28;20094;-84
2022/09/06 03:55:39;;;;;;;5.75;4.57;;;;;;;;;;5073068;28;20036;-84
2022/09/06 03:58:05;;;;;;;5.88;4.57;;;;;;;;;;5048238;28;20548;-84
2022/09/06 04:00:32;;;;;;;7.97;5.07;;;;;;;;;;5050975;28;20055;-84
2022/09/06 04:02:58;;;;;;;6.80;5.32;;;;;;;;;;5050517;28;20182;-84
2022/09/06 04:05:25;;;;;;;6.22;4.65;;;;;;;;;;5066338;28;20492;-84
2022/09/06 04:07:51;;;;;;;6.55;5.03;;;;;;;;;;5082961;28;20117;-84
2022/09/06 04:10:17;;;;;;;6.47;4.80;;;;;;;;;;5059289;28;20469;-84
2022/09/06 04:12:44;;;;;;;8.13;5.00;;;;;;;;;;5034892;28;1423604;-84
2022/09/06 04:15:10;;;;;;;8.15;5.55;;;;;;;;;;5049295;28;20078;-84
2022/09/06 04:17:36;;;;;;;5.65;4.90;;;;;;;;;;5053736;28;20089;-84
2022/09/06 04:20:03;;;;;;;12.65;5.03;;;;;;;;;;5069937;28;20177;-83
2022/09/06 04:22:29;;;;;;;11.38;5.05;;;;;;;;;;5066212;28;20405;-85
2022/09/06 04:24:57;;;;;;;7.13;4.53;;;;;;;;;;5071186;28;20042;-84
2022/09/06 04:27:23;;;;;;;8.23;4.50;;;;;;;;;;5066805;28;20035;-85
2022/09/06 04:29:49;;;;;;;8.50;5.28;;;;;;;;;;5052475;28;20028;-85
2022/09/06 04:32:15;;;;;;;9.93;6.65;;;;;;;;;;5049434;28;20401;-84
2022/09/06 04:34:41;;;;;;;8.88;6.13;;;;;;;;;;5046413;28;20458;-85
2022/09/06 04:37:07;;;;;;;10.45;6.40;;;;;;;;;;5051684;28;20041;-85
2022/09/06 04:39:33;;;;;;;11.30;5.82;;;;;;;;;;5044349;28;20055;-84
2022/09/06 04:41:59;;;;;;;7.57;5.60;;;;;;;;;;5066841;28;20036;-85
2022/09/06 04:44:25;;;;;;;8.80;6.05;;;;;;;;;;5076625;28;20032;-86
2022/09/06 04:47:01;;;;;;;7.35;6.22;;;;;;;;;;5047194;28;20380;-86
2022/09/06 04:49:27;;;;;;;9.40;6.38;;;;;;;;;;5074588;28;20054;-85
2022/09/06 04:51:53;;;;;;;8.10;6.15;;;;;;;;;;5047050;28;20036;-85
2022/09/06 04:54:20;;;;;;;7.38;6.15;;;;;;;;;;5055115;28;20039;-86
2022/09/06 04:56:46;;;;;;;8.93;6.38;;;;;;;;;;5054899;28;20096;-86
2022/09/06 04:59:12;;;;;;;9.55;6.85;;;;;;;;;;5045028;28;20032;-86
2022/09/06 05:01:38;;;;;;;8.50;6.35;;;;;;;;;;5058364;28;20043;-86
2022/09/06 05:04:04;;;;;;;9.85;6.25;;;;;;;;;;5045219;28;20043;-86
2022/09/06 05:06:30;;;;;;;9.57;6.82;;;;;;;;;;5060511;28;20138;-83
2022/09/06 05:08:56;;;;;;;7.38;6.45;;;;;;;;;;5061308;28;20055;-88
2022/09/06 05:11:23;;;;;;;7.65;6.68;;;;;;;;;;5044210;28;20051;-84
2022/09/06 05:13:49;;;;;;;7.18;6.47;;;;;;;;;;5053158;28;20071;-85
2022/09/06 05:16:15;;;;;;;8.32;7.53;;;;;;;;;;5062680;28;20036;-84
2022/09/06 05:18:43;;;;;;;9.52;6.93;;;;;;;;;;5068996;28;20039;-84
2022/09/06 05:21:09;;;;;;;7.78;6.80;;;;;;;;;;5078420;28;20052;-85
2022/09/06 05:23:35;;;;;;;6.65;5.80;;;;;;;;;;5069518;28;20051;-85
2022/09/06 05:26:02;;;;;;;7.63;6.30;;;;;;;;;;5070263;28;20036;-85
2022/09/06 05:28:28;;;;;;;7.53;6.10;;;;;;;;;;5049797;28;20492;-85
2022/09/06 05:31:04;;;;;;;7.38;6.18;;;;;;;;;;5044635;28;20071;-86
2022/09/06 05:33:33;;;;;;;11.73;6.78;;;;;;;;;;5064762;28;20040;-93
2022/09/06 05:35:59;;;;;;;12.52;6.55;;;;;;;;;;5056720;28;20051;-90
2022/09/06 05:38:25;;;;;;;7.97;6.85;;;;;;;;;;5057589;28;20050;-89
2022/09/06 05:40:54;;;;;;;7.55;6.72;;;;;;;;;;5052231;28;20036;-94
2022/09/06 05:43:20;;;;;;;9.75;6.32;;;;;;;;;;5067107;28;20048;-86
2022/09/06 05:45:47;;;;;;;9.25;6.97;;;;;;;;;;5072443;28;20477;-89
2022/09/06 05:48:13;;;;;;;7.70;6.68;;;;;;;;;;5051219;28;20178;-89
2022/09/06 05:50:39;;;;;;;8.25;6.88;;;;;;;;;;5059335;28;20032;-88
2022/09/06 05:53:05;;;;;;;11.32;6.65;;;;;;;;;;5057171;28;20450;-87
2022/09/06 05:55:31;;;;;;;10.77;7.22;;;;;;;;;;5071423;28;20039;-86
2022/09/06 05:57:57;;;;;;;12.02;7.13;;;;;;;;;;5068714;28;20078;-84
2022/09/06 06:00:24;;;;;;;9.20;6.47;;;;;;;;;;5050469;28;20054;-88
2022/09/06 06:02:51;;;;;;;9.07;6.88;;;;;;;;;;5069825;28;20081;-87
2022/09/06 06:05:17;;;;;;;7.50;6.70;;;;;;;;;;5061187;28;20035;-86
2022/09/06 06:07:43;;;;;;;8.55;6.78;;;;;;;;;;5054918;28;20122;-85
2022/09/06 06:10:10;;;;;;;10.65;7.03;;;;;;;;;;5052136;28;20042;-86
2022/09/06 06:12:36;;;;;;;9.15;6.82;;;;;;;;;;5059271;28;20081;-85
2022/09/06 06:15:04;;;;;;;7.95;7.15;;;;;;;;;;5074151;28;20138;-86
2022/09/06 06:17:30;;;;;;;16.95;8.88;;;;;;;;;;5056694;28;20214;-86
2022/09/06 06:19:57;;;;;;;11.23;7.53;;;;;;;;;;5075693;28;20097;-87
2022/09/06 06:22:23;;;;;;;6.97;6.18;;;;;;;;;;5064767;28;20148;-87
2022/09/06 06:24:49;;;;;;;9.52;7.50;;;;;;;;;;5064446;28;20047;-89
2022/09/06 06:27:15;;;;;;;9.05;7.50;;;;;;;;;;5053844;28;20469;-88
2022/09/06 06:29:42;;;;;;;10.65;8.05;;;;;;;;;;5075879;28;20040;-89
2022/09/06 06:32:08;;;;;;;11.93;8.02;;;;;;;;;;5060567;28;20115;-89
2022/09/06 06:34:34;;;;;;;7.97;7.05;;;;;;;;;;5076934;28;20039;-88
2022/09/06 06:37:00;;;;;;;10.38;9.15;;;;;;;;;;5060417;28;20639;-89
2022/09/06 06:39:26;;;;;;;7.47;6.65;;;;;;;;;;5055734;28;20146;-89
2022/09/06 06:41:52;;;;;;;9.98;7.22;;;;;;;;;;5059975;28;20036;-89
2022/09/06 06:44:19;;;;;;;9.07;7.82;;;;;;;;;;5061093;28;20054;-88
2022/09/06 06:46:45;;;;;;;10.75;7.75;;;;;;;;;;5051009;28;20460;-90
2022/09/06 06:49:11;;;;;;;9.75;6.88;;;;;;;;;;5060890;28;20089;-89
2022/09/06 06:51:38;;;;;;;8.00;7.13;;;;;;;;;;5052121;28;20527;-89
2022/09/06 06:54:05;;;;;;;13.02;7.90;;;;;;;;;;5054301;28;20359;-89
2022/09/06 06:56:33;;;;;;;8.70;7.18;;;;;;;;;;5053819;28;20110;-89
2022/09/06 06:59:00;;;;;;;8.68;7.72;;;;;;;;;;5076535;28;20264;-88
2022/09/06 07:01:27;;;;;;;10.75;6.75;;;;;;;;;;5069689;28;20035;-89
2022/09/06 07:03:53;;;;;;;8.75;7.63;;;;;;;;;;5069601;28;20520;-88
2022/09/06 07:06:20;;;;;;;10.88;8.18;;;;;;;;;;5088304;28;20470;-89
2022/09/06 07:08:46;;;;;;;8.93;8.00;;;;;;;;;;5049959;28;20040;-88
2022/09/06 07:11:13;;;;;;;8.30;7.50;;;;;;;;;;5075359;28;20035;-88
2022/09/06 07:13:40;;;;;;;9.02;8.13;;;;;;;;;;5049564;28;20136;-89
2022/09/06 07:16:11;;;;;;;8.95;7.85;;;;;;;;;;5060014;28;20390;-89
2022/09/06 07:18:41;;;;;;;9.45;7.65;;;;;;;;;;5067611;28;20035;-88
2022/09/06 07:21:11;;;;;;;8.55;7.45;;;;;;;;;;5058633;28;20546;-89
2022/09/06 07:23:37;;;;;;;10.30;8.20;;;;;;;;;;5058348;28;20125;-88
2022/09/06 07:26:03;;;;;;;10.00;8.60;;;;;;;;;;5069839;28;20048;-88
2022/09/06 07:28:30;;;;;;;10.23;8.73;;;;;;;;;;5055039;28;20109;-88
2022/09/06 07:30:56;;;;;;;14.65;10.43;;;;;;;;;;5067226;28;20035;-88
2022/09/06 07:33:23;;;;;;;8.20;7.13;;;;;;;;;;5058548;28;20077;-87
2022/09/06 07:35:56;;;;;;;10.55;8.80;;;;;;;;;;5050580;28;20070;-88
2022/09/06 07:38:22;;;;;;;8.85;7.93;;;;;;;;;;5065956;28;20046;-88
2022/09/06 07:41:02;;;;;;;8.80;7.68;;;;;;;;;;5049355;28;20032;-87
2022/09/06 07:43:29;;;;;;;10.30;7.68;;;;;;;;;;5075833;28;20112;-87
2022/09/06 07:46:05;;;;;;;9.98;8.98;;;;;;;;;;5053371;28;20178;-87
2022/09/06 07:48:33;;;;;;;13.68;9.88;;;;;;;;;;5069727;28;20139;-87
2022/09/06 07:51:10;;;;;;;11.65;9.27;;;;;;;;;;5057635;28;20576;-87
2022/09/06 07:53:37;;;;;;;12.32;10.00;;;;;;;;;;5054332;28;20040;-88
2022/09/06 07:56:05;;;;;;;12.52;10.60;;;;;;;;;;5072563;28;20097;-88
2022/09/06 07:58:31;;;;;;;10.30;7.95;;;;;;;;;;5065746;28;20244;-87
2022/09/06 08:01:17;;;;;;;14.07;9.45;;;;;;;;;;5052360;28;20430;-88
2022/09/06 08:03:43;;;;;;;12.20;9.43;;;;;;;;;;5048695;28;20040;-87
2022/09/06 08:06:10;;;;;;;11.02;8.77;;;;;;;;;;5082158;28;20034;-87
2022/09/06 08:08:36;;;;;;;9.77;8.73;;;;;;;;;;5065418;28;20105;-87
2022/09/06 08:11:05;;;;;;;11.73;9.55;;;;;;;;;;5065057;28;20035;-88
2022/09/06 08:13:31;;;;;;;10.05;9.00;;;;;;;;;;5063450;28;20079;-88
2022/09/06 08:15:59;;;;;;;11.55;9.90;;;;;;;;;;5047796;28;20156;-87
2022/09/06 08:18:25;;;;;;;9.40;8.50;;;;;;;;;;5083644;28;20108;-87
2022/09/06 08:20:51;;;;;;;10.85;9.70;;;;;;;;;;5065778;28;20051;-87
2022/09/06 08:23:17;;;;;;;11.27;9.35;;;;;;;;;;5079506;28;20060;-88
2022/09/06 08:25:43;;;;;;;11.57;9.88;;;;;;;;;;5058399;28;20130;-88
2022/09/06 08:28:10;;;;;;;10.50;9.13;;;;;;;;;;5067824;28;20044;-86
2022/09/06 08:30:36;;;;;;;11.52;10.35;;;;;;;;;;5070617;28;20032;-86
2022/09/06 08:33:02;;;;;;;11.88;9.25;;;;;;;;;;5070988;28;20036;-86
2022/09/06 08:35:28;;;;;;;9.25;8.20;;;;;;;;;;5066093;28;20052;-88
2022/09/06 08:37:57;;;;;;;11.20;9.15;;;;;;;;;;5033785;28;20489;-88
2022/09/06 08:40:24;;;;;;;14.05;10.50;;;;;;;;;;5064211;28;20035;-87
2022/09/06 08:42:50;;;;;;;11.52;10.43;;;;;;;;;;5053709;28;20080;-87
2022/09/06 08:45:22;;;;;;;12.10;10.30;;;;;;;;;;5055447;28;20365;-87
2022/09/06 08:47:51;;;;;;;12.50;11.20;;;;;;;;;;5072820;28;20031;-87
2022/09/06 08:50:17;;;;;;;11.05;9.00;;;;;;;;;;5080387;28;20047;-87
2022/09/06 08:53:10;;;;;;;10.43;9.40;;;;;;;;;;5072911;28;20309;-87
2022/09/06 08:55:36;;;;;;;17.98;10.23;;;;;;;;;;5070889;28;20044;-88
2022/09/06 08:58:05;;;;;;;13.88;10.50;;;;;;;;;;5078789;28;20047;-87
2022/09/06 09:00:33;;;;;;;11.77;9.82;;;;;;;;;;5071955;28;20195;-87
2022/09/06 09:03:06;;;;;;;11.73;8.73;;;;;;;;;;5061747;28;20119;-87
2022/09/06 09:05:34;;;;;;;11.30;10.20;;;;;;;;;;5063545;28;20423;-87
2022/09/06 09:08:12;;;;;;;11.40;9.38;;;;;;;;;;5077228;28;20081;-87
2022/09/06 09:10:42;;;;;;;10.52;8.90;;;;;;;;;;5055530;28;20040;-88
2022/09/06 09:13:11;;;;;;;10.07;8.98;;;;;;;;;;5054928;28;20054;-87
2022/09/06 09:15:38;;;;;;;9.48;8.40;;;;;;;;;;5048182;28;20054;-87
2022/09/06 09:18:04;;;;;;;11.18;8.60;;;;;;;;;;5051483;28;20065;-87
2022/09/06 09:20:30;;;;;;;9.45;8.55;;;;;;;;;;5071410;28;20051;-87
2022/09/06 09:22:56;;;;;;;9.55;8.55;;;;;;;;;;5071947;28;20075;-87
2022/09/06 09:25:23;;;;;;;10.10;8.27;;;;;;;;;;5038663;28;20067;-87
2022/09/06 09:27:56;;;;;;;9.20;8.30;;;;;;;;;;5048514;28;20058;-87
2022/09/06 09:30:23;;;;;;;10.57;9.50;;;;;;;;;;5081681;28;20040;-88
2022/09/06 09:32:49;;;;;;;11.50;9.20;;;;;;;;;;5055046;28;20044;-89
2022/09/06 09:35:15;;;;;;;11.57;9.10;;;;;;;;;;5072235;28;20036;-88
2022/09/06 09:37:41;;;;;;;11.57;9.40;;;;;;;;;;5075788;28;20117;-88
2022/09/06 09:40:28;;;;;;;11.38;9.02;;;;;;;;;;5083758;28;20456;-88
2022/09/06 09:42:56;;;;;;;11.93;8.48;;;;;;;;;;5080868;28;20075;-88
2022/09/06 09:45:27;;;;;;;9.93;7.68;;;;;;;;;;5064713;28;20136;-88
2022/09/06 09:47:54;;;;;;;8.82;7.47;;;;;;;;;;5050085;28;20035;-87
2022/09/06 09:50:31;;;;;;;8.60;7.00;;;;;;;;;;5059427;28;20040;-89
2022/09/06 09:53:09;;;;;;;9.52;7.75;;;;;;;;;;5083279;28;20378;-87
2022/09/06 09:55:35;;;;;;;17.00;7.55;;;;;;;;;;5070495;28;20048;-88
2022/09/06 09:58:02;;;;;;;8.93;7.43;;;;;;;;;;5067705;28;20461;-88
2022/09/06 10:00:38;;;;;;;9.02;8.13;;;;;;;;;;5052127;28;20044;-88
2022/09/06 10:03:24;;;;;;;10.20;8.50;;;;;;;;;;5059792;28;20051;-88
2022/09/06 10:05:55;;;;;;;10.75;7.90;;;;;;;;;;5075710;28;20078;-88
2022/09/06 10:08:23;;;;;;;9.55;7.90;;;;;;;;;;5067579;28;20039;-88
2022/09/06 10:10:49;;;;;;;10.52;7.28;;;;;;;;;;5069115;28;20078;-88
2022/09/06 10:13:20;;;;;;;11.82;8.32;;;;;;;;;;5050751;28;20066;-88
2022/09/06 10:15:46;;;;;;;9.05;7.70;;;;;;;;;;5052104;28;20198;-88
2022/09/06 10:18:17;;;;;;;10.32;7.82;;;;;;;;;;5059642;28;20047;-88
2022/09/06 10:20:48;;;;;;;8.38;7.55;;;;;;;;;;5084889;28;20078;-88
2022/09/06 10:23:40;;;;;;;9.68;7.38;;;;;;;;;;5057004;28;20047;-88
2022/09/06 10:26:12;;;;;;;9.70;6.88;;;;;;;;;;5051682;28;20049;-87
2022/09/06 10:28:40;;;;;;;9.35;7.30;;;;;;;;;;5074405;28;20122;-88
2022/09/06 10:31:13;;;;;;;9.68;7.35;;;;;;;;;;5075165;28;20042;-89
2022/09/06 10:33:39;;;;;;;8.18;7.38;;;;;;;;;;5085442;28;20533;-88
2022/09/06 10:36:05;;;;;;;9.23;8.05;;;;;;;;;;5059026;28;20074;-88
2022/09/06 10:38:31;;;;;;;11.20;7.93;;;;;;;;;;5035472;28;20047;-88
2022/09/06 10:41:03;;;;;;;8.93;6.78;;;;;;;;;;5072278;28;20453;-88
2022/09/06 10:43:39;;;;;;;7.28;4.72;;;;;;;;;;5050029;28;20048;-88
2022/09/06 10:46:11;;;;;;;5.18;4.68;;;;;;;;;;5067230;28;20043;-88
2022/09/06 10:48:41;;;;;;;7.95;5.45;;;;;;;;;;5067914;28;20040;-88
2022/09/06 10:51:19;;;;;;;8.57;4.97;;;;;;;;;;5060297;28;20123;-88
2022/09/06 10:53:55;;;;;;;7.78;5.10;;;;;;;;;;5082632;28;20063;-88
2022/09/06 10:56:26;;;;;;;5.68;4.72;;;;;;;;;;5074456;28;20047;-88
2022/09/06 10:59:03;;;;;;;6.45;4.72;;;;;;;;;;5059621;28;20046;-88
2022/09/06 11:01:32;;;;;;;7.03;5.28;;;;;;;;;;5066212;28;20040;-88
2022/09/06 11:03:59;;;;;;;6.38;4.93;;;;;;;;;;5075233;28;20047;-88
2022/09/06 11:06:30;;;;;;;7.13;5.45;;;;;;;;;;5058528;28;20059;-87
2022/09/06 11:09:16;;;;;;;6.47;5.45;;;;;;;;;;5055426;28;20044;-87
2022/09/06 11:11:44;;;;;;;7.80;5.07;;;;;;;;;;5066719;28;20032;-88
2022/09/06 11:14:15;;;;;;;5.90;4.32;;;;;;;;;;5066545;28;20496;-88
2022/09/06 11:16:52;;;;;;;9.27;5.03;;;;;;;;;;5054676;28;20035;-88
2022/09/06 11:19:25;;;;;;;5.93;5.28;;;;;;;;;;5053687;28;20118;-87
2022/09/06 11:21:54;;;;;;;6.22;5.63;;;;;;;;;;5066433;28;20516;-88
2022/09/06 11:24:20;;;;;;;7.50;5.20;;;;;;;;;;5067609;28;20048;-88
2022/09/06 11:27:11;;;;;;;7.28;5.22;;;;;;;;;;5058369;28;20043;-88
2022/09/06 11:29:40;;;;;;;6.60;4.95;;;;;;;;;;5067281;28;20036;-87
2022/09/06 11:32:26;;;;;;;11.05;5.30;;;;;;;;;;5053542;28;20481;-88
2022/09/06 11:34:54;;;;;;;7.40;4.88;;;;;;;;;;5056305;28;20036;-88
2022/09/06 11:37:24;;;;;;;6.80;5.10;;;;;;;;;;5067673;28;20044;-87
2022/09/06 11:40:04;;;;;;;7.75;5.90;;;;;;;;;;5067658;28;20180;-87
2022/09/06 11:42:41;;;;;;;7.88;6.10;;;;;;;;;;5068938;28;20036;-87
2022/09/06 11:45:07;;;;;;;6.95;5.28;;;;;;;;;;5066061;28;20318;-87
2022/09/06 11:47:41;;;;;;;6.05;4.32;;;;;;;;;;5048677;28;20119;-88
2022/09/06 11:50:20;;;;;;;6.22;4.57;;;;;;;;;;5058392;28;20033;-88
2022/09/06 11:52:49;;;;;;;5.35;3.85;;;;;;;;;;5058671;28;20139;-87
2022/09/06 11:55:17;;;;;;;5.07;4.32;;;;;;;;;;5084040;28;20054;-87
2022/09/06 11:57:44;;;;;;;4.90;3.95;;;;;;;;;;5066999;28;20067;-88
2022/09/06 12:00:19;;;;;;;5.90;3.88;;;;;;;;;;5057736;28;20059;-87
2022/09/06 12:02:45;;;;;;;7.32;4.10;;;;;;;;;;5072828;28;20036;-88
2022/09/06 12:05:13;;;;;;;5.95;3.25;;;;;;;;;;5056981;28;20180;-88
2022/09/06 12:07:58;;;;;;;6.70;3.78;;;;;;;;;;5066803;28;20122;-88
2022/09/06 12:10:31;;;;;;;6.00;3.83;;;;;;;;;;5081204;28;20071;-87
2022/09/06 12:12:57;;;;;;;;;;;;;;;;;;5049805;28;20115;-88
2022/09/06 12:15:24;;;;;;;4.63;3.63;;;;;;;;;;5056297;28;20005;-88
2022/09/06 12:17:51;;;;;;;3.58;2.95;;;;;;;;;;5067874;28;20089;-88
2022/09/06 12:20:36;;;;;;;3.72;3.30;;;;;;;;;;5073268;28;20127;-87
2022/09/06 12:23:02;;;;;;;4.97;4.13;;;;;;;;;;5059985;28;20040;-88
2022/09/06 12:25:51;;;;;;;5.38;4.03;;;;;;;;;;5058572;28;20044;-88
2022/09/06 12:28:25;;;;;;;5.20;3.97;;;;;;;;;;5069203;28;20039;-88
2022/09/06 12:30:51;;;;;;;6.07;3.88;;;;;;;;;;5047888;28;20327;-87
2022/09/06 12:33:31;;;;;;;5.15;2.90;;;;;;;;;;5054404;28;20036;-87
2022/09/06 12:36:16;;;;;;;4.47;3.15;;;;;;;;;;5049484;28;20044;-88
2022/09/06 12:38:56;;;;;;;4.22;3.13;;;;;;;;;;5051570;28;20080;-88
2022/09/06 12:41:22;;;;;;;4.93;3.33;;;;;;;;;;5058129;28;20040;-87
2022/09/06 12:43:49;;;;;;;5.68;3.30;;;;;;;;;;5075862;28;20046;-87
2022/09/06 12:46:15;;;;;;;4.28;3.30;;;;;;;;;;5052264;28;20044;-88
2022/09/06 12:48:43;;;;;;;6.72;3.25;;;;;;;;;;5057138;28;20319;-88
2022/09/06 12:51:15;;;;;;;6.05;3.20;;;;;;;;;;5064240;28;20126;-89
2022/09/06 12:53:49;;;;;;;3.60;2.50;;;;;;;;;;5057726;28;20040;-87
2022/09/06 12:56:19;;;;;;;4.28;3.00;;;;;;;;;;5065692;28;20089;-87
2022/09/06 12:58:45;;;;;;;4.53;3.42;;;;;;;;;;5057203;28;20510;-87
2022/09/06 13:01:14;;;;;;;5.53;3.72;;;;;;;;;;5051011;28;20043;-87
2022/09/06 13:03:45;;;;;;;7.35;3.05;;;;;;;;;;5049994;28;20043;-88
2022/09/06 13:06:15;;;;;;;5.45;3.22;;;;;;;;;;5081155;28;20362;-87
2022/09/06 13:08:47;;;;;;;6.68;3.20;;;;;;;;;;5064896;28;20163;-88
2022/09/06 13:11:14;;;;;;;5.28;3.67;;;;;;;;;;5069275;28;20092;-87
2022/09/06 13:13:47;;;;;;;4.10;2.88;;;;;;;;;;5086193;28;20055;-88
2022/09/06 13:16:20;;;;;;;5.53;3.17;;;;;;;;;;5083278;28;20070;-88
2022/09/06 13:18:46;;;;;;;3.70;2.60;;;;;;;;;;5067111;28;20043;-87
2022/09/06 13:21:23;;;;;;;5.47;3.45;;;;;;;;;;5054765;28;20123;-88
2022/09/06 13:23:49;;;;;;;4.65;3.83;;;;;;;;;;5080637;28;20050;-88
2022/09/06 13:26:33;;;;;;;3.58;2.78;;;;;;;;;;5052123;28;20091;-88
2022/09/06 13:29:11;;;;;;;5.22;4.45;;;;;;;;;;5052425;28;20039;-87
2022/09/06 13:31:38;;;;;;;6.85;3.75;;;;;;;;;;5080900;28;20486;-88
2022/09/06 13:34:04;;;;;;;7.32;3.17;;;;;;;;;;5073451;28;20504;-87
2022/09/06 13:36:31;;;;;;;4.88;3.22;;;;;;;;;;5051871;28;20072;-88
2022/09/06 13:38:58;;;;;;;6.18;3.40;;;;;;;;;;5045645;28;20031;-87
2022/09/06 13:41:24;;;;;;;4.78;2.83;;;;;;;;;;5080380;28;20136;-88
2022/09/06 13:44:02;;;;;;;4.53;3.42;;;;;;;;;;5071663;28;20036;-87
2022/09/06 13:46:28;;;;;;;3.60;2.63;;;;;;;;;;5091959;28;20043;-87
2022/09/06 13:48:55;;;;;;;4.40;3.10;;;;;;;;;;5068555;28;20061;-88
2022/09/06 13:51:22;;;;;;;3.55;2.45;;;;;;;;;;5063263;28;20089;-88
2022/09/06 13:53:48;;;;;;;4.88;2.65;;;;;;;;;;5049001;28;20081;-88
2022/09/06 13:56:15;;;;;;;3.55;2.40;;;;;;;;;;5055578;28;20036;-87
2022/09/06 13:58:42;;;;;;;3.83;2.42;;;;;;;;;;5064874;28;20134;-87
2022/09/06 14:01:09;;;;;;;4.30;2.58;;;;;;;;;;5048257;28;20044;-87
2022/09/06 14:03:36;;;;;;;3.78;2.47;;;;;;;;;;5046918;28;20044;-87
2022/09/06 14:06:03;;;;;;;3.65;2.40;;;;;;;;;;5063528;28;20089;-87
2022/09/06 14:08:29;;;;;;;5.65;2.22;;;;;;;;;;5047273;28;20074;-86
2022/09/06 14:10:56;;;;;;;2.80;2.00;;;;;;;;;;5066351;28;20089;-87
2022/09/06 14:13:22;;;;;;;3.00;2.10;;;;;;;;;;5056455;28;20621;-87
2022/09/06 14:15:49;;;;;;;3.88;1.75;;;;;;;;;;5062379;28;20047;-87
2022/09/06 14:18:16;;;;;;;3.08;2.45;;;;;;;;;;5057131;28;20154;-87
2022/09/06 14:20:42;;;;;;;3.58;1.75;;;;;;;;;;5053538;28;20074;-86
2022/09/06 14:23:09;;;;;;;3.53;1.92;;;;;;;;;;5057261;28;20050;-87
2022/09/06 14:25:35;;;;;;;5.22;2.17;;;;;;;;;;5050670;28;20040;-86
2022/09/06 14:28:02;;;;;;;3.42;1.77;;;;;;;;;;5051832;28;20032;-87
2022/09/06 14:30:28;;;;;;;4.43;1.88;;;;;;;;;;5059153;28;20475;-87
2022/09/06 14:32:55;;;;;;;3.10;1.70;;;;;;;;;;5070030;28;20047;-88
2022/09/06 14:35:21;;;;;;;4.28;1.95;;;;;;;;;;5075288;28;20055;-87
2022/09/06 14:37:47;;;;;;;3.70;1.52;;;;;;;;;;5059285;28;20103;-88
2022/09/06 14:40:14;;;;;;;5.47;2.42;;;;;;;;;;5067693;28;20046;-87
2022/09/06 14:42:40;;;;;;;5.38;2.63;;;;;;;;;;5063789;28;20046;-87
2022/09/06 14:45:07;;;;;;;5.50;2.60;;;;;;;;;;5051601;28;20032;-87
2022/09/06 14:47:33;;;;;;;3.22;2.58;;;;;;;;;;5051270;28;20564;-87
2022/09/06 14:49:59;;;;;;;4.50;2.47;;;;;;;;;;5066696;28;20040;-87
2022/09/06 14:52:25;;;;;;;3.45;2.22;;;;;;;;;;5058811;28;20040;-87